createdAt,value
2022-09-27T00:01:15.537Z,44.34
2022-09-27T00:03:44.406Z,44.42
2022-09-27T00:06:41.022Z,44.64
2022-09-27T00:09:09.977Z,45.48
2022-09-27T00:11:41.452Z,45.20
2022-09-27T00:14:12.347Z,45.41
2022-09-27T00:16:42.960Z,46.05
2022-09-27T00:19:20.192Z,46.83
2022-09-27T00:21:49.451Z,46.71
2022-09-27T00:24:21.332Z,47.00
2022-09-27T00:26:51.051Z,46.01
2022-09-27T00:29:20.773Z,44.93
2022-09-27T00:31:49.360Z,44.50
2022-09-27T00:34:24.831Z,45.55
2022-09-27T00:36:54.255Z,46.12
2022-09-27T00:39:23.014Z,46.67
2022-09-27T00:41:51.766Z,45.98
2022-09-27T00:44:29.597Z,45.71
2022-09-27T00:47:43.014Z,45.78
2022-09-27T00:50:34.372Z,46.71
2022-09-27T00:53:20.267Z,47.79
2022-09-27T00:56:00.930Z,47.50
2022-09-27T00:58:34.529Z,48.56
2022-09-27T01:01:07.450Z,48.85
2022-09-27T01:03:47.835Z,50.77
2022-09-27T01:06:17.921Z,51.90
2022-09-27T01:08:49.816Z,52.48
2022-09-27T01:11:24.406Z,52.79
2022-09-27T01:14:06.359Z,51.33
2022-09-27T01:16:57.050Z,52.34
2022-09-27T01:19:37.948Z,51.38
2022-09-27T01:22:19.358Z,52.53
2022-09-27T01:25:34.638Z,53.59
2022-09-27T01:28:47.551Z,54.05
2022-09-27T01:31:40.695Z,53.28
2022-09-27T01:34:11.421Z,53.83
2022-09-27T01:37:04.632Z,54.47
2022-09-27T01:39:38.415Z,54.03
2022-09-27T01:42:32.896Z,55.65
2022-09-27T01:45:16.452Z,54.61
2022-09-27T01:47:56.635Z,55.98
2022-09-27T01:50:40.850Z,54.54
2022-09-27T01:53:26.587Z,55.42
2022-09-27T01:55:56.955Z,56.66
2022-09-27T01:58:44.369Z,54.81
2022-09-27T02:01:15.674Z,54.73
2022-09-27T02:03:51.588Z,55.00
2022-09-27T02:06:39.454Z,54.63
2022-09-27T02:09:32.257Z,54.89
2022-09-27T02:12:08.747Z,55.05
2022-09-27T02:14:56.167Z,55.37
2022-09-27T02:17:54.977Z,55.59
2022-09-27T02:20:33.133Z,56.21
2022-09-27T02:23:10.763Z,56.06
2022-09-27T02:25:59.352Z,56.44
2022-09-27T02:28:35.078Z,56.78
2022-09-27T02:31:04.084Z,56.83
2022-09-27T02:34:05.692Z,57.13
2022-09-27T02:36:34.440Z,57.48
2022-09-27T02:39:03.007Z,57.61
2022-09-27T02:41:31.511Z,58.06
2022-09-27T02:44:07.427Z,57.95
2022-09-27T02:46:47.481Z,58.20
2022-09-27T02:49:54.412Z,58.92
2022-09-27T02:52:56.829Z,59.00
2022-09-27T02:55:44.234Z,59.88
2022-09-27T02:58:18.648Z,59.69
2022-09-27T03:01:10.720Z,60.17
2022-09-27T03:03:59.732Z,60.09
2022-09-27T03:06:30.996Z,60.05
2022-09-27T03:08:59.592Z,60.65
2022-09-27T03:11:28.240Z,60.58
2022-09-27T03:14:08.285Z,61.08
2022-09-27T03:16:38.114Z,60.88
2022-09-27T03:19:06.785Z,61.29
2022-09-27T03:21:35.864Z,61.69
2022-09-27T03:24:04.904Z,61.77
2022-09-27T03:26:33.583Z,61.90
2022-09-27T03:29:02.390Z,62.07
2022-09-27T03:31:31.796Z,62.40
2022-09-27T03:34:00.203Z,62.83
2022-09-27T03:36:28.732Z,62.76
2022-09-27T03:38:57.307Z,62.74
2022-09-27T03:41:26.271Z,62.84
2022-09-27T03:43:55.964Z,62.42
2022-09-27T03:46:24.708Z,62.33
2022-09-27T03:48:53.673Z,62.39
2022-09-27T03:51:22.358Z,62.55
2022-09-27T03:53:50.932Z,62.72
2022-09-27T03:56:20.574Z,62.64
2022-09-27T03:58:49.896Z,63.03
2022-09-27T04:01:18.545Z,63.03
2022-09-27T04:03:47.465Z,63.30
2022-09-27T04:06:16.218Z,62.94
2022-09-27T04:08:44.894Z,62.99
2022-09-27T04:11:13.698Z,62.84
2022-09-27T04:13:42.451Z,62.72
2022-09-27T04:16:11.723Z,62.65
2022-09-27T04:18:40.273Z,62.66
2022-09-27T04:21:08.638Z,62.37
2022-09-27T04:23:37.860Z,62.38
2022-09-27T04:26:06.722Z,62.16
2022-09-27T04:28:35.268Z,61.86
2022-09-27T04:31:03.878Z,61.81
2022-09-27T04:33:32.747Z,62.03
2022-09-27T04:36:19.619Z,61.54
2022-09-27T04:38:48.994Z,61.67
2022-09-27T04:41:17.813Z,61.93
2022-09-27T04:43:46.407Z,62.01
2022-09-27T04:46:15.428Z,61.76
2022-09-27T04:48:44.107Z,61.34
2022-09-27T04:51:12.551Z,61.32
2022-09-27T04:53:41.339Z,61.08
2022-09-27T04:56:09.980Z,61.37
2022-09-27T04:58:38.685Z,61.32
2022-09-27T05:01:08.581Z,61.27
2022-09-27T05:03:37.420Z,61.53
2022-09-27T05:06:06.272Z,61.40
2022-09-27T05:08:34.976Z,61.11
2022-09-27T05:11:03.723Z,61.09
2022-09-27T05:13:32.053Z,61.22
2022-09-27T05:16:06.042Z,61.77
2022-09-27T05:18:35.322Z,61.18
2022-09-27T05:21:03.986Z,61.16
2022-09-27T05:23:32.351Z,60.73
2022-09-27T05:26:04.408Z,60.70
2022-09-27T05:28:33.714Z,61.35
2022-09-27T05:31:03.133Z,61.00
2022-09-27T05:33:32.491Z,61.10
2022-09-27T05:36:01.306Z,61.34
2022-09-27T05:38:29.888Z,61.57
2022-09-27T05:40:58.630Z,61.59
2022-09-27T05:43:27.259Z,61.50
2022-09-27T05:45:55.954Z,61.33
2022-09-27T05:48:24.540Z,61.62
2022-09-27T05:50:53.251Z,61.62
2022-09-27T05:53:21.918Z,61.74
2022-09-27T05:55:50.944Z,61.05
2022-09-27T05:58:19.627Z,61.13
2022-09-27T06:00:47.999Z,60.94
2022-09-27T06:03:16.553Z,61.09
2022-09-27T06:05:49.135Z,61.39
2022-09-27T06:08:21.569Z,61.17
2022-09-27T06:10:50.234Z,61.13
2022-09-27T06:13:19.513Z,61.58
2022-09-27T06:15:48.643Z,61.91
2022-09-27T06:18:19.140Z,61.75
2022-09-27T06:20:47.759Z,61.81
2022-09-27T06:23:22.360Z,61.73
2022-09-27T06:25:52.608Z,62.04
2022-09-27T06:28:21.954Z,62.71
2022-09-27T06:30:51.990Z,62.18
2022-09-27T06:33:22.210Z,62.61
2022-09-27T06:35:51.391Z,62.48
2022-09-27T06:38:22.507Z,62.43
2022-09-27T06:40:51.305Z,62.49
2022-09-27T06:43:22.445Z,62.59
2022-09-27T06:45:51.762Z,62.49
2022-09-27T06:48:20.438Z,62.39
2022-09-27T06:50:50.395Z,63.04
2022-09-27T06:53:19.473Z,62.85
2022-09-27T06:55:47.929Z,62.49
2022-09-27T06:58:34.686Z,62.45
2022-09-27T07:01:03.412Z,62.18
2022-09-27T07:03:40.918Z,62.38
2022-09-27T07:06:18.003Z,62.42
2022-09-27T07:08:46.367Z,62.05
2022-09-27T07:11:16.736Z,61.75
2022-09-27T07:13:45.629Z,61.67
2022-09-27T07:16:15.702Z,61.33
2022-09-27T07:18:44.981Z,61.52
2022-09-27T07:21:13.872Z,61.94
2022-09-27T07:23:42.205Z,61.75
2022-09-27T07:26:12.447Z,61.58
2022-09-27T07:28:42.869Z,62.08
2022-09-27T07:31:11.331Z,61.83
2022-09-27T07:33:43.494Z,61.49
2022-09-27T07:36:13.793Z,61.67
2022-09-27T07:38:42.592Z,61.43
2022-09-27T07:41:14.556Z,61.61
2022-09-27T07:43:46.143Z,61.17
2022-09-27T07:46:14.952Z,61.77
2022-09-27T07:48:43.702Z,61.27
2022-09-27T07:51:13.239Z,60.95
2022-09-27T07:53:42.114Z,60.94
2022-09-27T07:56:13.032Z,60.88
2022-09-27T07:58:41.657Z,61.46
2022-09-27T08:01:10.170Z,61.10
2022-09-27T08:03:38.934Z,61.27
2022-09-27T08:06:07.560Z,60.92
2022-09-27T08:08:36.152Z,61.03
2022-09-27T08:11:16.926Z,60.62
2022-09-27T08:13:47.419Z,60.41
2022-09-27T08:16:16.569Z,60.63
2022-09-27T08:18:45.781Z,60.55
2022-09-27T08:21:14.460Z,60.14
2022-09-27T08:23:44.097Z,59.96
2022-09-27T08:26:12.576Z,60.16
2022-09-27T08:28:41.288Z,59.92
2022-09-27T08:31:09.906Z,60.14
2022-09-27T08:33:41.395Z,60.21
2022-09-27T08:36:14.498Z,59.93
2022-09-27T08:38:43.382Z,59.88
2022-09-27T08:41:35.558Z,60.65
2022-09-27T08:44:29.386Z,61.06
2022-09-27T08:47:04.318Z,60.73
2022-09-27T08:49:41.543Z,60.80
2022-09-27T08:52:19.907Z,60.96
2022-09-27T08:54:49.627Z,60.88
2022-09-27T08:57:19.132Z,60.94
2022-09-27T09:00:07.796Z,61.02
2022-09-27T09:02:38.564Z,61.18
2022-09-27T09:05:19.600Z,61.34
2022-09-27T09:08:11.320Z,61.83
2022-09-27T09:11:37.197Z,61.92
2022-09-27T09:14:26.366Z,62.20
2022-09-27T09:17:12.906Z,62.31
2022-09-27T09:19:59.919Z,62.40
2022-09-27T09:22:54.530Z,62.59
2022-09-27T09:25:48.997Z,62.54
2022-09-27T09:28:30.943Z,62.47
2022-09-27T09:31:19.947Z,62.76
2022-09-27T09:33:56.600Z,62.97
2022-09-27T09:36:25.125Z,63.09
2022-09-27T09:39:00.252Z,63.59
2022-09-27T09:44:23.848Z,63.51
2022-09-27T09:46:57.400Z,63.83
2022-09-27T09:49:41.534Z,64.30
2022-09-27T09:52:18.011Z,64.21
2022-09-27T09:54:54.949Z,64.51
2022-09-27T09:57:37.943Z,64.20
2022-09-27T10:00:18.148Z,64.52
2022-09-27T10:02:48.988Z,64.68
2022-09-27T10:05:23.978Z,64.91
2022-09-27T10:07:55.674Z,65.25
2022-09-27T10:10:24.983Z,65.27
2022-09-27T10:12:53.480Z,65.59
2022-09-27T10:15:24.932Z,65.34
2022-09-27T10:17:57.923Z,65.78
2022-09-27T10:20:28.608Z,65.77
2022-09-27T10:23:05.656Z,66.33
2022-09-27T10:26:07.144Z,66.50
2022-09-27T10:28:40.163Z,66.46
2022-09-27T10:31:09.471Z,66.69
2022-09-27T10:33:55.965Z,66.95
2022-09-27T10:36:30.609Z,67.00
2022-09-27T10:39:02.292Z,66.97
2022-09-27T10:41:37.921Z,67.12
2022-09-27T10:44:21.700Z,67.22
2022-09-27T10:46:52.972Z,67.45
2022-09-27T10:49:24.260Z,67.70
2022-09-27T10:51:55.963Z,68.01
2022-09-27T10:54:30.933Z,67.85
2022-09-27T10:57:05.635Z,68.06
2022-09-27T10:59:41.566Z,68.11
2022-09-27T11:02:28.354Z,67.94
2022-09-27T11:05:15.459Z,68.13
2022-09-27T11:07:56.384Z,68.09
2022-09-27T11:10:37.427Z,67.89
2022-09-27T11:13:16.407Z,67.96
2022-09-27T11:16:05.930Z,68.24
2022-09-27T11:18:34.429Z,68.19
2022-09-27T11:21:19.871Z,68.33
2022-09-27T11:24:13.435Z,68.08
2022-09-27T11:27:07.066Z,67.56
2022-09-27T11:29:51.943Z,67.87
2022-09-27T11:32:42.951Z,68.19
2022-09-27T11:35:30.107Z,68.17
2022-09-27T11:38:12.640Z,68.45
2022-09-27T11:41:22.807Z,68.57
2022-09-27T11:44:12.736Z,69.83
2022-09-27T11:46:43.309Z,68.87
2022-09-27T11:49:33.718Z,69.00
2022-09-27T11:52:29.550Z,68.71
2022-09-27T11:55:07.185Z,69.20
2022-09-27T11:57:42.952Z,68.95
2022-09-27T12:00:21.947Z,69.38
2022-09-27T12:03:11.747Z,69.34
2022-09-27T12:06:14.435Z,69.16
2022-09-27T12:09:20.867Z,69.58
2022-09-27T12:11:55.811Z,70.03
2022-09-27T12:14:48.578Z,70.03
2022-09-27T12:17:25.819Z,70.27
2022-09-27T12:19:58.050Z,70.22
2022-09-27T12:22:58.009Z,70.56
2022-09-27T12:25:33.679Z,70.55
2022-09-27T12:28:32.456Z,71.02
2022-09-27T12:34:19.892Z,72.05
2022-09-27T12:37:06.626Z,71.65
2022-09-27T12:39:43.521Z,72.36
2022-09-27T12:42:24.161Z,72.74
2022-09-27T12:44:53.631Z,72.83
2022-09-27T12:47:50.263Z,73.07
2022-09-27T12:50:27.717Z,73.20
2022-09-27T12:53:13.507Z,73.27
2022-09-27T12:56:10.686Z,73.25
2022-09-27T12:59:14.779Z,73.19
2022-09-27T13:02:14.899Z,72.74
2022-09-27T13:05:08.365Z,72.59
2022-09-27T13:07:45.756Z,72.82
2022-09-27T13:10:32.491Z,72.13
2022-09-27T13:13:02.207Z,72.29
2022-09-27T13:15:40.907Z,72.36
2022-09-27T13:18:39.228Z,72.53
2022-09-27T13:21:09.830Z,73.19
2022-09-27T13:23:41.393Z,73.09
2022-09-27T13:26:28.537Z,73.04
2022-09-27T13:29:04.436Z,72.73
2022-09-27T13:31:59.961Z,72.51
2022-09-27T13:34:49.331Z,72.96
2022-09-27T13:37:50.133Z,72.82
2022-09-27T13:40:18.703Z,72.93
2022-09-27T13:42:56.999Z,72.74
2022-09-27T13:45:32.856Z,72.73
2022-09-27T13:48:11.103Z,72.66
2022-09-27T13:50:42.298Z,72.67
2022-09-27T13:53:32.186Z,72.66
2022-09-27T13:56:00.963Z,72.71
2022-09-27T13:59:07.428Z,72.91
2022-09-27T14:01:42.808Z,72.80
2022-09-27T14:04:26.420Z,72.95
2022-09-27T14:07:01.795Z,73.05
2022-09-27T14:09:40.928Z,72.95
2022-09-27T14:12:20.405Z,73.43
2022-09-27T14:14:52.226Z,73.05
2022-09-27T14:17:21.441Z,72.93
2022-09-27T14:19:52.613Z,73.60
2022-09-27T14:22:23.475Z,74.14
2022-09-27T14:24:55.037Z,73.89
2022-09-27T14:27:28.195Z,74.52
2022-09-27T14:30:03.810Z,74.01
2022-09-27T14:32:38.107Z,73.56
2022-09-27T14:35:31.990Z,74.27
2022-09-27T14:38:20.672Z,74.30
2022-09-27T14:40:55.555Z,74.62
2022-09-27T14:43:25.027Z,74.18
2022-09-27T14:45:59.411Z,74.64
2022-09-27T14:48:32.517Z,74.74
2022-09-27T14:51:06.830Z,74.41
2022-09-27T14:53:48.147Z,74.71
2022-09-27T14:56:20.559Z,72.79
2022-09-27T14:58:57.662Z,71.89
2022-09-27T15:01:27.148Z,71.30
2022-09-27T15:03:56.070Z,70.70
2022-09-27T15:06:26.627Z,71.06
2022-09-27T15:08:56.401Z,71.10
2022-09-27T15:11:25.819Z,70.58
2022-09-27T15:13:56.476Z,69.87
2022-09-27T15:16:26.604Z,69.26
2022-09-27T15:19:04.566Z,68.27
2022-09-27T15:21:35.745Z,68.28
2022-09-27T15:24:05.797Z,68.33
2022-09-27T15:26:47.903Z,67.71
2022-09-27T15:29:21.994Z,67.17
2022-09-27T15:32:16.025Z,67.52
2022-09-27T15:34:45.550Z,66.96
2022-09-27T15:37:38.516Z,65.93
2022-09-27T15:40:22.265Z,65.66
2022-09-27T15:43:00.974Z,65.62
2022-09-27T15:45:38.604Z,64.82
2022-09-27T15:48:19.448Z,64.64
2022-09-27T15:50:49.462Z,64.81
2022-09-27T15:53:44.416Z,63.66
2022-09-27T15:56:15.969Z,63.65
2022-09-27T15:58:45.566Z,63.44
2022-09-27T16:01:20.412Z,62.77
2022-09-27T16:03:49.806Z,61.87
2022-09-27T16:06:19.466Z,61.99
2022-09-27T16:08:48.323Z,61.52
2022-09-27T16:11:18.788Z,61.17
2022-09-27T16:13:47.580Z,61.72
2022-09-27T16:16:22.838Z,61.51
2022-09-27T16:18:51.707Z,60.99
2022-09-27T16:21:20.379Z,61.53
2022-09-27T16:23:49.139Z,60.86
2022-09-27T16:26:17.728Z,60.81
2022-09-27T16:28:46.643Z,61.03
2022-09-27T16:31:18.559Z,60.75
2022-09-27T16:33:51.908Z,60.08
2022-09-27T16:36:21.915Z,60.48
2022-09-27T16:38:53.932Z,60.34
2022-09-27T16:41:24.321Z,59.03
2022-09-27T16:43:53.484Z,59.65
2022-09-27T16:46:23.143Z,58.43
2022-09-27T16:48:51.516Z,59.36
2022-09-27T16:51:40.510Z,58.52
2022-09-27T16:54:09.794Z,57.63
2022-09-27T16:56:38.873Z,57.14
2022-09-27T16:59:08.411Z,55.24
2022-09-27T17:01:36.498Z,56.18
2022-09-27T17:04:04.874Z,55.04
2022-09-27T17:06:33.259Z,53.86
2022-09-27T17:09:05.734Z,53.45
2022-09-27T17:11:33.958Z,53.08
2022-09-27T17:14:02.570Z,52.56
2022-09-27T17:16:31.454Z,52.35
2022-09-27T17:19:00.056Z,51.37
2022-09-27T17:21:28.662Z,50.97
2022-09-27T17:23:57.238Z,51.49
2022-09-27T17:26:32.251Z,50.34
2022-09-27T17:29:02.863Z,49.68
2022-09-27T17:31:33.656Z,50.42
2022-09-27T17:34:03.167Z,49.01
2022-09-27T17:36:38.512Z,48.34
2022-09-27T17:39:07.183Z,48.00
2022-09-27T17:41:39.804Z,47.82
2022-09-27T17:44:08.853Z,46.05
2022-09-27T17:46:38.774Z,45.86
2022-09-27T17:49:26.039Z,46.25
2022-09-27T17:51:55.667Z,44.56
2022-09-27T17:54:27.555Z,42.51
2022-09-27T17:56:57.411Z,44.79
2022-09-27T17:59:25.982Z,45.16
2022-09-27T18:01:54.508Z,44.45
2022-09-27T18:04:23.635Z,44.94
2022-09-27T18:06:52.313Z,45.63
2022-09-27T18:09:21.057Z,45.84
2022-09-27T18:11:49.585Z,45.29
2022-09-27T18:14:18.937Z,45.01
2022-09-27T18:16:47.705Z,44.73
2022-09-27T18:19:18.696Z,43.70
2022-09-27T18:21:47.348Z,43.64
2022-09-27T18:24:16.216Z,43.16
2022-09-27T18:26:49.740Z,45.52
2022-09-27T18:29:20.222Z,47.01
2022-09-27T18:31:49.750Z,45.04
2022-09-27T18:34:19.454Z,44.41
2022-09-27T18:36:48.639Z,43.71
2022-09-27T18:39:20.431Z,43.07
2022-09-27T18:41:52.418Z,42.93
2022-09-27T18:44:21.155Z,43.42
2022-09-27T18:46:49.838Z,42.81
2022-09-27T18:49:21.169Z,42.31
2022-09-27T18:51:53.551Z,44.71
2022-09-27T18:54:23.875Z,45.07
2022-09-27T18:56:53.577Z,45.64
2022-09-27T18:59:24.402Z,43.74
2022-09-27T19:01:53.575Z,42.26
2022-09-27T19:04:25.952Z,44.05
2022-09-27T19:06:56.134Z,42.32
2022-09-27T19:09:27.203Z,41.92
2022-09-27T19:11:56.003Z,41.53
2022-09-27T19:14:24.797Z,42.21
2022-09-27T19:16:53.407Z,41.53
2022-09-27T19:19:22.404Z,42.19
2022-09-27T19:21:51.711Z,41.56
2022-09-27T19:24:20.274Z,41.84
2022-09-27T19:26:50.346Z,41.65
2022-09-27T19:29:18.917Z,41.97
2022-09-27T19:31:47.603Z,42.83
2022-09-27T19:34:16.744Z,41.67
2022-09-27T19:36:45.285Z,40.04
2022-09-27T19:39:13.939Z,41.47
2022-09-27T19:41:42.290Z,41.50
2022-09-27T19:44:12.538Z,42.79
2022-09-27T19:46:40.742Z,43.01
2022-09-27T19:49:09.148Z,42.84
2022-09-27T19:51:38.668Z,43.57
2022-09-27T19:54:07.077Z,44.36
2022-09-27T19:56:36.249Z,43.82
2022-09-27T19:59:07.204Z,43.68
2022-09-27T20:01:37.091Z,43.82
2022-09-27T20:04:05.823Z,44.40
2022-09-27T20:06:34.667Z,44.94
2022-09-27T20:09:04.547Z,43.34
2022-09-27T20:11:34.147Z,44.29
2022-09-27T20:14:02.515Z,43.43
2022-09-27T20:16:31.283Z,41.98
2022-09-27T20:19:02.188Z,41.97
2022-09-27T20:21:35.851Z,42.08
2022-09-27T20:24:05.692Z,41.89
2022-09-27T20:26:37.656Z,42.00
2022-09-27T20:29:08.221Z,42.05
2022-09-27T20:31:50.419Z,42.42
2022-09-27T20:34:28.551Z,42.92
2022-09-27T20:36:57.097Z,41.72
2022-09-27T20:39:25.743Z,42.40
2022-09-27T20:41:54.703Z,42.36
2022-09-27T20:44:23.902Z,42.72
2022-09-27T20:46:52.804Z,42.54
2022-09-27T20:49:21.964Z,42.05
2022-09-27T20:51:50.839Z,42.50
2022-09-27T20:54:19.666Z,41.92
2022-09-27T20:56:49.947Z,42.50
2022-09-27T20:59:21.880Z,43.23
2022-09-27T21:01:52.710Z,42.95
2022-09-27T21:04:22.874Z,43.06
2022-09-27T21:06:51.492Z,41.99
2022-09-27T21:09:20.649Z,42.25
2022-09-27T21:11:50.883Z,42.97
2022-09-27T21:14:19.412Z,43.07
2022-09-27T21:16:48.091Z,42.27
2022-09-27T21:19:19.423Z,42.23
2022-09-27T21:21:48.032Z,42.71
2022-09-27T21:24:16.347Z,42.44
2022-09-27T21:26:44.715Z,42.67
2022-09-27T21:29:14.938Z,43.40
2022-09-27T21:31:44.131Z,42.55
2022-09-27T21:34:12.908Z,42.80
2022-09-27T21:36:41.285Z,42.46
2022-09-27T21:39:10.935Z,42.24
2022-09-27T21:41:40.255Z,42.11
2022-09-27T21:44:10.230Z,42.64
2022-09-27T21:46:41.746Z,42.33
2022-09-27T21:49:12.458Z,42.58
2022-09-27T21:51:42.902Z,42.49
2022-09-27T21:54:15.781Z,42.29
2022-09-27T21:56:45.666Z,42.81
2022-09-27T21:59:17.128Z,41.91
2022-09-27T22:01:47.472Z,41.80
2022-09-27T22:04:16.102Z,41.85
2022-09-27T22:06:45.633Z,41.04
2022-09-27T22:09:17.519Z,42.31
2022-09-27T22:11:48.321Z,41.28
2022-09-27T22:14:19.044Z,41.27
2022-09-27T22:16:48.624Z,41.65
2022-09-27T22:19:18.302Z,41.26
2022-09-27T22:21:47.014Z,40.97
2022-09-27T22:24:18.255Z,41.87
2022-09-27T22:26:51.610Z,41.43
2022-09-27T22:29:20.453Z,41.45
2022-09-27T22:31:49.470Z,41.69
2022-09-27T22:34:29.415Z,41.98
2022-09-27T22:37:00.154Z,42.12
2022-09-27T22:39:28.965Z,41.81
2022-09-27T22:41:57.674Z,42.05
2022-09-27T22:44:26.975Z,41.65
2022-09-27T22:46:55.687Z,41.35
2022-09-27T22:49:25.438Z,40.89
2022-09-27T22:51:54.073Z,41.63
2022-09-27T22:54:22.623Z,42.33
2022-09-27T22:56:58.339Z,42.91
2022-09-27T22:59:28.556Z,42.40
2022-09-27T23:01:57.788Z,42.12
2022-09-27T23:04:26.497Z,42.60
2022-09-27T23:06:55.285Z,42.68
2022-09-27T23:09:24.062Z,42.80
2022-09-27T23:11:52.731Z,42.33
2022-09-27T23:14:24.582Z,42.72
2022-09-27T23:16:53.820Z,42.37
2022-09-27T23:19:24.512Z,42.21
2022-09-27T23:21:53.156Z,42.43
2022-09-27T23:24:21.508Z,42.60
2022-09-27T23:27:10.031Z,42.34
2022-09-27T23:29:39.153Z,42.87
2022-09-27T23:32:07.454Z,43.29
2022-09-27T23:34:36.202Z,42.72
2022-09-27T23:37:04.936Z,42.91
2022-09-27T23:39:34.753Z,42.78
2022-09-27T23:42:03.394Z,42.61
2022-09-27T23:44:32.493Z,43.04
2022-09-27T23:47:01.676Z,43.77
2022-09-27T23:49:30.519Z,43.23
2022-09-27T23:51:59.868Z,43.38
2022-09-27T23:54:29.371Z,43.71
2022-09-27T23:56:57.944Z,43.86
2022-09-27T23:59:26.782Z,43.65
